Time;durP1;ratioP1;P1;durP2;ratioP2;P2;SDS_P1;SDS_P2;PMS_P1;PMS_P2;Temp;Humidity;BMP_temperature;BMP_pressure;BME280_temperature;BME280_humidity;BME280_pressure;Samples;Min_cycle;Max_cycle;Signal;HPM_P1;HPM_P2
2022/07/03 00:01:34;;;;;;;4.55;3.67;;;;;;;16.74;100.00;99588.94;4399607;32;20167;-72
2022/07/03 00:04:01;;;;;;;9.55;4.05;;;;;;;16.84;100.00;99583.50;4399510;32;20201;-72
2022/07/03 00:06:30;;;;;;;6.95;3.90;;;;;;;16.59;100.00;99533.53;4399514;32;20467;-70
2022/07/03 00:08:58;;;;;;;3.40;3.00;;;;;;;16.92;100.00;99582.16;4399472;32;20078;-72
2022/07/03 00:11:25;;;;;;;5.60;4.18;;;;;;;16.81;100.00;99548.69;4397556;32;20045;-73
2022/07/03 00:13:52;;;;;;;7.87;3.87;;;;;;;17.21;100.00;99585.00;4399029;32;20038;-71
2022/07/03 00:16:18;;;;;;;6.12;3.75;;;;;;;17.17;100.00;99578.50;4399593;32;20180;-72
2022/07/03 00:18:45;;;;;;;6.05;3.17;;;;;;;16.96;100.00;99540.50;4399457;32;20837;-71
2022/07/03 00:21:16;;;;;;;5.15;3.85;;;;;;;17.19;100.00;99566.22;4401679;32;20411;-71
2022/07/03 00:23:46;;;;;;;7.78;3.58;;;;;;;17.06;100.00;99540.44;4402203;32;20047;-71
2022/07/03 00:26:13;;;;;;;4.43;2.92;;;;;;;17.36;100.00;99571.31;4388369;32;20084;-70
2022/07/03 00:28:43;;;;;;;6.12;3.45;;;;;;;17.20;100.00;99529.78;4401008;32;20038;-73
2022/07/03 00:31:11;;;;;;;4.18;3.03;;;;;;;17.48;100.00;99556.53;4401277;32;20042;-71
2022/07/03 00:33:38;;;;;;;6.72;3.05;;;;;;;17.38;100.00;99577.28;4402015;32;20050;-71
2022/07/03 00:36:05;;;;;;;3.72;3.42;;;;;;;17.05;100.00;99543.44;4402245;32;20039;-71
2022/07/03 00:38:32;;;;;;;4.10;2.97;;;;;;;17.13;100.00;99566.53;4402190;32;20065;-70
2022/07/03 00:41:02;;;;;;;6.65;2.87;;;;;;;16.87;100.00;99520.44;4401778;32;20080;-71
2022/07/03 00:43:28;;;;;;;3.53;2.50;;;;;;;16.94;100.00;99515.47;4401801;32;20060;-71
2022/07/03 00:46:07;;;;;;;3.10;2.80;;;;;;;16.92;100.00;99514.94;4401311;32;20358;-72
2022/07/03 00:48:38;;;;;;;5.40;3.10;;;;;;;17.11;100.00;99553.22;4402085;32;20060;-71
2022/07/03 00:51:06;;;;;;;3.87;3.40;;;;;;;17.14;100.00;99562.72;4402070;32;20056;-70
2022/07/03 00:53:35;;;;;;;4.18;3.00;;;;;;;16.78;100.00;99512.00;4401841;32;20371;-71
2022/07/03 00:56:03;;;;;;;3.37;2.75;;;;;;;16.82;100.00;99553.84;4401683;32;20063;-71
2022/07/03 00:58:30;;;;;;;5.57;3.83;;;;;;;16.92;100.00;99554.94;4401667;32;21025;-71
2022/07/03 01:00:57;;;;;;;5.15;2.67;;;;;;;16.93;100.00;99551.94;4400586;32;20101;-72
2022/07/03 01:03:37;;;;;;;3.10;2.90;;;;;;;16.88;100.00;99532.91;4401888;32;20722;-71
2022/07/03 01:06:12;;;;;;;7.90;2.90;;;;;;;16.96;100.00;99551.37;4402018;32;20368;-71
2022/07/03 01:08:47;;;;;;;5.75;3.10;;;;;;;16.80;100.00;99538.91;4400767;32;20338;-71
2022/07/03 01:11:35;;;;;;;3.25;2.95;;;;;;;16.73;100.00;99514.75;4400563;32;20108;-71
2022/07/03 01:14:26;;;;;;;2.72;2.53;;;;;;;16.86;100.00;99507.91;4401446;32;20050;-71
2022/07/03 01:17:33;;;;;;;8.10;3.10;;;;;;;17.22;100.00;99554.78;4398863;32;20064;-72
2022/07/03 01:20:04;;;;;;;7.57;3.03;;;;;;;17.06;100.00;99509.72;4324937;33;20080;-71
2022/07/03 01:22:41;;;;;;;2.78;2.58;;;;;;;16.95;100.00;99494.56;4324716;33;20118;-71
2022/07/03 01:25:26;;;;;;;4.50;2.60;;;;;;;17.40;100.00;99547.84;4324908;33;20057;-71
2022/07/03 01:28:04;;;;;;;6.43;2.30;;;;;;;17.22;100.00;99496.84;4324189;33;20053;-71
2022/07/03 01:30:34;;;;;;;9.25;2.75;;;;;;;17.51;100.00;99534.19;4323766;33;20040;-72
2022/07/03 01:33:09;;;;;;;2.85;2.55;;;;;;;17.40;100.00;99539.69;4324209;33;20080;-71
2022/07/03 01:35:39;;;;;;;2.95;2.50;;;;;;;17.43;100.00;99533.69;4324844;33;20040;-70
2022/07/03 01:38:09;;;;;;;3.28;2.60;;;;;;;17.28;100.00;99522.91;4324045;33;20040;-71
2022/07/03 01:40:38;;;;;;;2.80;2.17;;;;;;;17.23;100.00;99539.25;4323882;33;20206;-71
2022/07/03 01:43:07;;;;;;;4.32;2.58;;;;;;;17.24;100.00;99535.44;4323611;33;20189;-72
2022/07/03 01:45:38;;;;;;;2.62;2.20;;;;;;;16.97;100.00;99493.16;4323624;33;20107;-71
2022/07/03 01:48:06;;;;;;;4.72;2.05;;;;;;;17.25;100.00;99526.22;4335259;33;20048;-71
2022/07/03 01:50:33;;;;;;;2.67;2.47;;;;;;;16.98;100.00;99500.22;4339117;33;20036;-72
2022/07/03 01:53:04;;;;;;;4.53;2.53;;;;;;;17.14;100.00;99528.16;4344801;32;20547;-71
2022/07/03 01:55:33;;;;;;;6.82;2.50;;;;;;;16.70;100.00;99467.19;4416243;32;20159;-71
2022/07/03 01:57:59;;;;;;;5.30;2.12;;;;;;;17.14;100.00;99525.44;4414226;32;20360;-73
2022/07/03 02:00:26;;;;;;;2.78;2.55;;;;;;;17.13;100.00;99517.56;4415562;32;20092;-72
2022/07/03 02:03:00;;;;;;;9.05;2.50;;;;;;;16.98;100.00;99489.34;4415883;32;20062;-71
2022/07/03 02:05:41;;;;;;;2.87;2.50;;;;;;;17.10;100.00;99509.97;4416239;32;20060;-71
2022/07/03 02:08:14;;;;;;;3.25;2.33;;;;;;;17.11;100.00;99500.72;4416120;32;20046;-71
2022/07/03 02:10:46;;;;;;;2.35;2.25;;;;;;;16.96;100.00;99490.72;4414475;32;20042;-72
2022/07/03 02:13:22;;;;;;;2.78;2.58;;;;;;;16.98;100.00;99497.53;4416188;32;20761;-71
2022/07/03 02:15:51;;;;;;;3.90;2.58;;;;;;;16.94;100.00;99499.16;4416520;32;20121;-71
2022/07/03 02:18:30;;;;;;;5.03;3.65;;;;;;;16.93;100.00;99500.28;4415834;32;20078;-71
2022/07/03 02:21:18;;;;;;;3.05;2.30;;;;;;;16.89;100.00;99497.28;4415701;32;20042;-71
2022/07/03 02:24:06;;;;;;;8.77;2.72;;;;;;;16.84;100.00;99493.75;4415349;32;20054;-72
2022/07/03 02:26:37;;;;;;;3.30;2.85;;;;;;;16.83;100.00;99503.00;4415476;32;20385;-71
2022/07/03 02:29:06;;;;;;;2.97;2.35;;;;;;;16.52;100.00;99460.44;4415123;32;20174;-71
2022/07/03 02:31:39;;;;;;;4.43;2.55;;;;;;;16.65;100.00;99502.53;4414726;32;20510;-72
2022/07/03 02:34:07;;;;;;;2.90;2.55;;;;;;;16.70;100.00;99507.13;4415660;32;20068;-71
2022/07/03 02:36:35;;;;;;;3.80;3.30;;;;;;;16.42;100.00;99467.81;4408637;32;20387;-71
2022/07/03 02:39:01;;;;;;;5.90;2.53;;;;;;;16.36;100.00;99474.41;4398894;32;20096;-71
2022/07/03 02:41:39;;;;;;;2.28;2.12;;;;;;;16.57;100.00;99511.25;4400084;32;20072;-71
2022/07/03 02:44:23;;;;;;;3.10;2.80;;;;;;;16.63;100.00;99518.31;4398459;32;20030;-72
2022/07/03 02:47:00;;;;;;;5.07;2.58;;;;;;;16.58;100.00;99521.06;4400184;32;20064;-71
2022/07/03 02:49:44;;;;;;;5.25;2.70;;;;;;;16.53;100.00;99521.09;4400396;32;20034;-71
2022/07/03 02:52:32;;;;;;;3.30;2.60;;;;;;;16.61;100.00;99522.38;4398656;32;20174;-72
2022/07/03 02:55:10;;;;;;;2.30;2.20;;;;;;;16.66;100.00;99520.47;4400383;32;20026;-71
2022/07/03 02:57:40;;;;;;;3.20;2.33;;;;;;;16.82;100.00;99518.50;4399479;32;20064;-71
2022/07/03 03:00:10;;;;;;;2.83;2.37;;;;;;;16.98;100.00;99516.56;4400181;32;20123;-71
2022/07/03 03:02:44;;;;;;;6.22;2.65;;;;;;;17.02;100.00;99520.34;4398575;32;20035;-71
2022/07/03 03:05:20;;;;;;;6.18;2.97;;;;;;;16.86;100.00;99465.22;4399545;32;20364;-71
2022/07/03 03:07:59;;;;;;;3.70;2.42;;;;;;;16.80;100.00;99476.34;4399984;32;20383;-71
2022/07/03 03:10:26;;;;;;;8.15;2.65;;;;;;;17.02;100.00;99504.03;4398881;32;20035;-71
2022/07/03 03:13:07;;;;;;;5.10;2.33;;;;;;;16.82;100.00;99485.88;4398982;32;20223;-71
2022/07/03 03:15:35;;;;;;;5.75;2.37;;;;;;;16.66;100.00;99476.97;4399920;32;20039;-71
2022/07/03 03:18:07;;;;;;;3.00;2.45;;;;;;;16.90;100.00;99503.56;4386231;32;20107;-71
2022/07/03 03:20:36;;;;;;;4.15;2.30;;;;;;;16.90;100.00;99503.56;4400067;32;20039;-70
2022/07/03 03:23:09;;;;;;;2.70;2.50;;;;;;;16.81;100.00;99499.75;4398442;32;20072;-71
2022/07/03 03:25:36;;;;;;;2.97;2.40;;;;;;;16.93;100.00;99492.13;4399891;32;20916;-71
2022/07/03 03:28:03;;;;;;;4.28;2.30;;;;;;;16.64;100.00;99457.44;4399383;32;20362;-71
2022/07/03 03:30:30;;;;;;;4.37;2.53;;;;;;;16.85;100.00;99479.06;4400035;32;20057;-71
2022/07/03 03:32:56;;;;;;;8.30;2.58;;;;;;;16.97;100.00;99503.22;4399819;32;20034;-71
2022/07/03 03:35:23;;;;;;;3.15;2.30;;;;;;;16.99;100.00;99496.44;4384680;32;20035;-71
2022/07/03 03:37:49;;;;;;;2.85;1.90;;;;;;;17.03;100.00;99502.91;4399464;32;20043;-72
2022/07/03 03:40:17;;;;;;;4.15;2.37;;;;;;;16.95;100.00;99500.78;4398608;32;20070;-71
2022/07/03 03:42:44;;;;;;;4.57;2.50;;;;;;;16.87;100.00;99496.75;4399120;32;20076;-71
2022/07/03 03:45:10;;;;;;;4.07;2.42;;;;;;;16.73;100.00;99462.28;4399645;32;20061;-71
2022/07/03 03:47:43;;;;;;;2.55;2.35;;;;;;;16.76;100.00;99448.12;4400172;32;20388;-70
2022/07/03 03:50:10;;;;;;;5.95;2.25;;;;;;;17.10;100.00;99501.81;4400068;32;20055;-71
2022/07/03 03:52:36;;;;;;;3.22;2.42;;;;;;;17.11;100.00;99489.84;4399594;32;20082;-71
2022/07/03 03:55:03;;;;;;;5.22;2.50;;;;;;;17.21;100.00;99497.91;4398918;32;20035;-72
2022/07/03 03:57:30;;;;;;;6.47;2.30;;;;;;;17.24;100.00;99494.62;4401264;32;20043;-71
2022/07/03 03:59:57;;;;;;;4.28;2.22;;;;;;;17.32;100.00;99494.03;4402460;32;20073;-71
2022/07/03 04:02:23;;;;;;;4.18;2.60;;;;;;;17.19;100.00;99467.47;4402593;32;20039;-70
2022/07/03 04:04:50;;;;;;;5.53;2.40;;;;;;;17.51;100.00;99501.53;4402563;32;20059;-71
2022/07/03 04:07:16;;;;;;;5.75;2.40;;;;;;;17.43;100.00;99479.25;4402788;32;20064;-71
2022/07/03 04:09:44;;;;;;;3.50;2.42;;;;;;;17.53;100.00;99472.09;4402479;32;20072;-70
2022/07/03 04:12:11;;;;;;;4.32;1.95;;;;;;;17.77;100.00;99500.22;4400755;32;20057;-72
2022/07/03 04:14:37;;;;;;;3.80;2.53;;;;;;;17.87;100.00;99493.88;4401816;32;20091;-70
2022/07/03 04:17:04;;;;;;;2.62;2.20;;;;;;;17.90;100.00;99478.88;4402670;32;20074;-70
2022/07/03 04:19:31;;;;;;;4.03;2.75;;;;;;;18.04;100.00;99493.44;4402333;32;20038;-70
2022/07/03 04:21:57;;;;;;;3.37;2.22;;;;;;;18.23;100.00;99500.91;4402453;32;20064;-70
2022/07/03 04:24:23;;;;;;;4.45;2.12;;;;;;;17.48;100.00;99366.00;4401154;32;20022;-70
2022/07/03 04:26:50;;;;;;;6.30;2.12;;;;;;;18.25;100.00;99498.69;4388001;32;20391;-70
2022/07/03 04:29:16;;;;;;;4.37;2.37;;;;;;;17.97;100.00;99454.84;4400837;32;20307;-70
2022/07/03 04:31:43;;;;;;;2.58;2.20;;;;;;;17.76;100.00;99422.34;4402272;32;20073;-70
2022/07/03 04:34:09;;;;;;;4.70;2.15;;;;;;;18.24;100.00;99491.63;4402285;32;20051;-70
2022/07/03 04:36:35;;;;;;;6.18;1.98;;;;;;;18.17;100.00;99485.69;4402156;32;20060;-70
2022/07/03 04:39:08;;;;;;;9.20;2.42;;;;;;;17.91;100.00;99456.00;4402475;32;20031;-71
2022/07/03 04:41:35;;;;;;;2.85;1.80;;;;;;;18.35;100.00;99495.88;4401874;32;20357;-71
2022/07/03 04:44:01;;;;;;;6.82;2.30;;;;;;;18.23;100.00;99465.47;4401084;32;20073;-71
2022/07/03 04:46:27;;;;;;;2.97;2.10;;;;;;;18.50;100.00;99490.22;4399753;32;20119;-70
2022/07/03 04:48:54;;;;;;;2.33;2.10;;;;;;;18.46;100.00;99499.25;4401960;32;20335;-72
2022/07/03 04:51:21;;;;;;;2.00;1.90;;;;;;;18.31;100.00;99453.94;4402291;32;20035;-72
2022/07/03 04:53:47;;;;;;;1.87;1.75;;;;;;;18.50;100.00;99500.31;4400609;32;20035;-71
2022/07/03 04:56:14;;;;;;;5.60;2.22;;;;;;;18.51;100.00;99497.31;4401655;32;20052;-71
2022/07/03 04:58:40;;;;;;;2.78;2.25;;;;;;;18.52;100.00;99493.47;4401488;32;20069;-71
2022/07/03 05:01:06;;;;;;;3.78;2.12;;;;;;;18.41;100.00;99456.53;4401573;32;20396;-72
2022/07/03 05:03:33;;;;;;;2.20;1.67;;;;;;;18.54;100.00;99465.94;4386898;32;20043;-72
2022/07/03 05:05:59;;;;;;;3.70;1.92;;;;;;;18.45;100.00;99452.13;4401461;32;20187;-71
2022/07/03 05:08:25;;;;;;;1.58;1.55;;;;;;;18.63;100.00;99455.16;4401953;32;20076;-71
2022/07/03 05:10:52;;;;;;;2.47;2.10;;;;;;;18.90;100.00;99491.94;4401830;32;20082;-71
2022/07/03 05:13:19;;;;;;;2.55;1.60;;;;;;;18.63;100.00;99445.06;4388180;32;20049;-70
2022/07/03 05:15:45;;;;;;;2.65;2.05;;;;;;;18.89;100.00;99480.22;4401804;32;20057;-71
2022/07/03 05:18:11;;;;;;;2.55;1.87;;;;;;;18.63;100.00;99461.41;4388373;32;20391;-70
2022/07/03 05:20:38;;;;;;;5.45;2.50;;;;;;;18.95;100.00;99478.22;4400336;32;20421;-71
2022/07/03 05:23:04;;;;;;;2.72;1.98;;;;;;;18.85;100.00;99471.81;4388066;32;20036;-71
2022/07/03 05:25:31;;;;;;;1.60;1.50;;;;;;;19.15;100.00;99509.88;4402193;32;20046;-71
2022/07/03 05:27:58;;;;;;;2.37;1.62;;;;;;;19.13;100.00;99515.66;4401423;32;20031;-71
2022/07/03 05:30:26;;;;;;;3.85;2.22;;;;;;;19.15;100.00;99516.16;4388099;32;20451;-70
2022/07/03 05:32:53;;;;;;;3.22;1.25;;;;;;;18.93;100.00;99447.72;4401534;32;20086;-71
2022/07/03 05:35:20;;;;;;;1.70;1.60;;;;;;;19.42;100.00;99514.69;4386924;32;20031;-72
2022/07/03 05:37:46;;;;;;;1.80;1.70;;;;;;;19.44;100.00;99512.44;4400810;32;20060;-70
2022/07/03 05:40:13;;;;;;;6.72;2.10;;;;;;;19.05;100.00;99476.19;4401799;32;20050;-69
2022/07/03 05:42:46;;;;;;;2.03;1.90;;;;;;;19.13;100.00;99466.53;4387913;32;20065;-70
2022/07/03 05:45:12;;;;;;;1.85;1.75;;;;;;;19.41;100.00;99474.81;4401907;32;20081;-70
2022/07/03 05:47:39;;;;;;;4.80;1.70;;;;;;;19.33;100.00;99483.69;4401322;32;20166;-70
2022/07/03 05:50:06;;;;;;;2.95;2.03;;;;;;;19.46;100.00;99466.53;4401860;32;20035;-70
2022/07/03 05:52:32;;;;;;;4.87;1.87;;;;;;;19.57;100.00;99495.28;4400003;32;20086;-72
2022/07/03 05:54:59;;;;;;;2.47;1.50;;;;;;;19.40;100.00;99462.25;4401234;32;20046;-70
2022/07/03 05:57:25;;;;;;;2.40;1.67;;;;;;;19.60;100.00;99455.66;4400958;32;20076;-70
2022/07/03 06:02:24;;;;;;;4.00;1.48;;;;;;;20.02;100.00;99488.56;4401350;32;20069;-70
2022/07/03 06:04:51;;;;;;;4.87;1.35;;;;;;;20.13;100.00;99484.53;4387715;32;20360;-70
2022/07/03 06:07:17;;;;;;;1.92;1.10;;;;;;;20.17;100.00;99482.81;4409543;32;20060;-72
2022/07/03 06:09:44;;;;;;;1.45;1.35;;;;;;;20.14;100.00;99475.22;4424685;32;20118;-69
2022/07/03 06:12:11;;;;;;;4.07;1.20;;;;;;;19.58;100.00;99406.81;4426814;32;20054;-68
2022/07/03 06:14:37;;;;;;;4.00;1.50;;;;;;;20.17;100.00;99474.63;4420200;32;20060;-69
2022/07/03 06:17:03;;;;;;;1.90;1.67;;;;;;;20.19;100.00;99477.84;4414649;32;20052;-68
2022/07/03 06:19:30;;;;;;;5.93;2.10;;;;;;;19.77;100.00;99439.53;4416423;32;20072;-69
2022/07/03 06:22:03;;;;;;;2.70;1.37;;;;;;;19.98;100.00;99444.63;4416077;32;20099;-68
2022/07/03 06:24:29;;;;;;;2.92;1.37;;;;;;;20.05;100.00;99468.84;4415795;32;20046;-69
2022/07/03 06:26:56;;;;;;;4.78;1.90;;;;;;;20.25;100.00;99465.72;4416160;32;20097;-69
2022/07/03 06:29:22;;;;;;;4.72;2.22;;;;;;;20.12;100.00;99444.66;4422363;32;20451;-69
2022/07/03 06:31:49;;;;;;;5.03;1.50;;;;;;;20.27;100.00;99458.00;4422257;32;20046;-69
2022/07/03 06:34:15;;;;;;;1.17;1.00;;;;;;;20.13;100.00;99430.66;4422168;32;20079;-69
2022/07/03 06:36:41;;;;;;;3.53;1.48;;;;;;;20.22;100.00;99471.78;4420110;32;20450;-68
2022/07/03 06:39:08;;;;;;;4.75;1.02;;;;;;;20.10;100.00;99438.66;4423004;32;20068;-69
2022/07/03 06:41:34;;;;;;;1.52;1.30;;;;;;;20.20;100.00;99463.09;4419183;32;20050;-69
2022/07/03 06:44:00;;;;;;;9.55;1.70;;;;;;;20.00;100.00;99441.59;4414741;32;20039;-69
2022/07/03 06:46:27;;;;;;;1.80;1.70;;;;;;;20.09;100.00;99461.66;4416017;32;20054;-68
2022/07/03 06:48:54;;;;;;;14.10;1.80;;;;;;;20.08;100.00;99446.38;4421500;32;20076;-69
2022/07/03 06:51:20;;;;;;;1.80;1.17;;;;;;;20.31;100.00;99455.47;4417140;32;20153;-68
2022/07/03 06:53:46;;;;;;;7.97;1.60;;;;;;;20.29;100.00;99466.72;4416421;32;20047;-68
2022/07/03 06:56:13;;;;;;;2.62;1.65;;;;;;;20.39;100.00;99470.34;4421054;32;20099;-69
2022/07/03 06:58:39;;;;;;;1.62;1.10;;;;;;;20.44;100.00;99451.94;4417043;32;20098;-68
2022/07/03 07:01:05;;;;;;;9.75;2.03;;;;;;;20.35;100.00;99425.62;4413985;32;20455;-71
2022/07/03 07:03:32;;;;;;;2.55;1.15;;;;;;;20.43;100.00;99417.50;4413927;32;20243;-68
2022/07/03 07:05:58;;;;;;;9.48;1.45;;;;;;;20.46;100.00;99427.81;4415599;32;20064;-69
2022/07/03 07:08:25;;;;;;;1.65;1.10;;;;;;;20.62;100.00;99454.84;4408022;32;20449;-68
2022/07/03 07:10:51;;;;;;;2.45;1.40;;;;;;;20.58;100.00;99457.41;4400174;32;20031;-69
2022/07/03 07:13:17;;;;;;;1.48;1.12;;;;;;;20.45;100.00;99419.91;4400228;32;20056;-68
2022/07/03 07:15:44;;;;;;;3.35;1.10;;;;;;;20.57;100.00;99412.00;4400311;32;20384;-68
2022/07/03 07:18:10;;;;;;;4.53;1.60;;;;;;;20.76;100.00;99435.69;4400445;32;20035;-69
2022/07/03 07:20:36;;;;;;;1.00;0.95;;;;;;;20.66;100.00;99407.47;4414261;32;20030;-69
2022/07/03 07:23:03;;;;;;;1.75;1.00;;;;;;;20.65;100.00;99386.69;4415382;32;20980;-69
2022/07/03 07:25:29;;;;;;;2.33;1.02;;;;;;;20.94;100.00;99429.25;4401638;32;20060;-68
2022/07/03 07:27:55;;;;;;;2.95;1.08;;;;;;;20.79;100.00;99402.25;4401339;32;20421;-69
2022/07/03 07:30:22;;;;;;;1.00;1.00;;;;;;;20.85;100.00;99415.53;4385555;32;20072;-69
2022/07/03 07:32:48;;;;;;;5.18;1.08;;;;;;;20.86;100.00;99424.53;4400391;32;20046;-68
2022/07/03 07:35:15;;;;;;;2.37;1.48;;;;;;;20.82;100.00;99423.53;4407744;32;20379;-72
2022/07/03 07:37:41;;;;;;;4.22;1.10;;;;;;;20.83;100.00;99386.84;4424489;32;20341;-71
2022/07/03 07:40:08;;;;;;;4.03;0.93;;;;;;;20.77;100.00;99377.13;4416859;32;20433;-69
2022/07/03 07:42:34;;;;;;;2.83;1.23;;;;;;;20.97;100.00;99420.44;4414482;32;20080;-70
2022/07/03 07:45:01;;;;;;;2.30;1.15;;;;;;;20.85;100.00;99422.91;4415613;32;20065;-69
2022/07/03 07:47:27;;;;;;;4.07;1.10;;;;;;;20.77;100.00;99377.13;4415291;32;20072;-69
2022/07/03 07:49:54;;;;;;;5.07;1.10;;;;;;;20.99;100.00;99385.34;4415183;32;20366;-69
2022/07/03 07:52:22;;;;;;;2.03;1.27;;;;;;;20.97;100.00;99376.66;4415462;32;20454;-70
2022/07/03 07:54:49;;;;;;;9.02;0.93;;;;;;;21.32;100.00;99417.97;4414548;32;20063;-69
2022/07/03 07:57:15;;;;;;;1.20;1.10;;;;;;;20.92;100.00;99384.97;4412021;32;20038;-69
2022/07/03 07:59:41;;;;;;;1.00;1.00;;;;;;;21.14;100.00;99386.09;4414451;32;20413;-69
2022/07/03 08:07:38;;;;;;;1.20;1.10;;;;;;;21.41;100.00;99407.88;4411115;32;20441;-69
2022/07/03 08:10:05;;;;;;;1.20;1.20;;;;;;;21.55;100.00;99416.03;4412074;32;20062;-69
2022/07/03 08:12:31;;;;;;;1.70;1.20;;;;;;;21.61;100.00;99405.75;4414241;32;20042;-69
2022/07/03 08:14:57;;;;;;;1.02;0.98;;;;;;;21.31;100.00;99369.78;4414498;32;20391;-69
2022/07/03 08:17:24;;;;;;;0.90;0.90;;;;;;;21.45;100.00;99401.78;4414512;32;20479;-68
2022/07/03 08:19:50;;;;;;;4.30;1.37;;;;;;;21.28;100.00;99402.47;4400419;32;20379;-68
2022/07/03 08:22:17;;;;;;;3.42;1.00;;;;;;;21.18;100.00;99398.06;4398092;32;20097;-72
2022/07/03 08:24:43;;;;;;;3.53;1.20;;;;;;;21.11;100.00;99392.19;4411182;32;20133;-68
2022/07/03 08:27:09;;;;;;;1.90;1.00;;;;;;;21.00;100.00;99380.69;4414125;32;20058;-69
2022/07/03 08:29:36;;;;;;;2.25;1.15;;;;;;;20.73;100.00;99360.53;4400441;32;20058;-69
2022/07/03 08:32:03;;;;;;;1.52;1.40;;;;;;;21.04;100.00;99404.41;4413636;32;20189;-70
2022/07/03 08:34:29;;;;;;;4.03;0.85;;;;;;;21.10;100.00;99364.00;4413612;32;20054;-69
2022/07/03 08:36:56;;;;;;;2.33;1.17;;;;;;;21.44;100.00;99380.97;4414326;32;20038;-69
2022/07/03 08:39:22;;;;;;;2.03;0.88;;;;;;;21.34;100.00;99362.88;4414295;32;20047;-69
2022/07/03 08:41:50;;;;;;;5.22;1.35;;;;;;;21.67;100.00;99363.41;4413111;32;20084;-72
2022/07/03 08:44:18;;;;;;;3.87;1.25;;;;;;;21.74;100.00;99382.94;4416341;32;20068;-68
2022/07/03 08:46:48;;;;;;;2.00;0.90;;;;;;;21.60;100.00;99354.81;4417222;32;20053;-68
2022/07/03 08:49:17;;;;;;;1.00;1.00;;;;;;;21.95;100.00;99394.16;4416450;32;20034;-69
2022/07/03 08:51:45;;;;;;;4.72;1.20;;;;;;;21.85;100.00;99366.22;4416834;32;20078;-70
2022/07/03 08:54:12;;;;;;;2.92;1.20;;;;;;;21.72;100.00;99390.66;4403540;32;20046;-69
2022/07/03 08:56:39;;;;;;;0.80;0.80;;;;;;;21.91;100.00;99386.88;4415179;32;20433;-71
2022/07/03 08:59:07;;;;;;;1.77;1.08;;;;;;;22.04;100.00;99385.97;4398702;32;20039;-70
2022/07/03 09:01:35;;;;;;;3.22;1.17;;;;;;;21.77;100.00;99390.53;4406676;32;20068;-70
2022/07/03 09:04:02;;;;;;;2.40;1.00;;;;;;;21.74;100.00;99376.66;4422757;32;20046;-69
2022/07/03 09:06:33;;;;;;;1.48;1.00;;;;;;;21.67;100.00;99363.41;4432225;32;20034;-69
2022/07/03 09:09:03;;;;;;;3.90;0.98;;;;;;;21.50;100.00;99334.00;4420587;32;20030;-69
2022/07/03 09:11:30;;;;;;;1.20;1.20;;;;;;;21.99;100.00;99383.37;4431971;32;20064;-71
2022/07/03 09:13:56;;;;;;;0.80;0.80;;;;;;;22.40;100.00;99387.72;4430671;32;20034;-70
2022/07/03 09:16:23;;;;;;;1.35;1.00;;;;;;;22.31;100.00;99360.25;4432197;32;20082;-69
2022/07/03 09:18:50;;;;;;;1.52;1.20;;;;;;;22.61;100.00;99392.59;4432436;32;20079;-68
2022/07/03 09:21:17;;;;;;;2.00;0.85;;;;;;;22.72;100.00;99388.41;4432237;32;20056;-69
2022/07/03 09:23:45;;;;;;;1.62;0.77;;;;;;;22.52;100.00;99387.06;4432330;32;20081;-68
2022/07/03 09:26:14;;;;;;;4.20;1.20;;;;;;;22.53;100.00;99352.19;4431994;32;20068;-68
2022/07/03 09:28:43;;;;;;;1.08;1.08;;;;;;;22.63;100.00;99390.31;4431893;32;20026;-71
2022/07/03 09:31:12;;;;;;;4.30;1.10;;;;;;;22.41;100.00;99394.78;4430914;32;20046;-70
2022/07/03 09:34:03;;;;;;;1.62;1.35;;;;;;;22.04;100.00;99347.56;4432199;32;20073;-70
2022/07/03 09:36:44;;;;;;;4.03;0.68;;;;;;;22.35;100.00;99390.59;4410476;32;20039;-70
2022/07/03 09:39:21;;;;;;;2.92;1.17;;;;;;;22.34;100.00;99394.47;4400206;32;20443;-70
2022/07/03 09:41:57;;;;;;;4.00;1.52;;;;;;;22.44;100.00;99382.38;4387818;32;20378;-69
2022/07/03 09:44:30;;;;;;;1.87;1.15;;;;;;;22.68;100.00;99381.91;4401286;32;20487;-68
2022/07/03 09:47:14;;;;;;;2.75;0.98;;;;;;;22.59;100.00;99378.34;4401242;32;20043;-70
2022/07/03 09:49:47;;;;;;;1.33;1.05;;;;;;;22.74;100.00;99380.62;4401275;32;20065;-69
2022/07/03 09:52:33;;;;;;;2.62;1.10;;;;;;;22.53;100.00;99379.62;4399879;32;20082;-70
2022/07/03 09:55:09;;;;;;;1.15;0.95;;;;;;;22.43;100.00;99359.63;4401513;32;20067;-70
2022/07/03 09:57:59;;;;;;;2.12;1.33;;;;;;;22.72;100.00;99377.41;4399800;32;20156;-69
2022/07/03 10:00:28;;;;;;;1.10;1.10;;;;;;;22.96;100.00;99370.59;4387414;32;20030;-68
2022/07/03 10:03:12;;;;;;;1.62;1.48;;;;;;;23.12;100.00;99363.53;4400932;32;20164;-68
2022/07/03 10:05:40;;;;;;;2.37;1.00;;;;;;;23.31;100.00;99363.19;4398167;32;20031;-71
2022/07/03 10:08:15;;;;;;;0.93;0.90;;;;;;;22.81;100.00;99337.03;4401381;32;20047;-69
2022/07/03 10:10:46;;;;;;;0.98;0.75;;;;;;;22.89;100.00;99364.81;4401040;32;20072;-70
2022/07/03 10:13:14;;;;;;;1.92;0.75;;;;;;;22.79;100.00;99344.78;4400831;32;20043;-69
2022/07/03 10:15:42;;;;;;;1.27;0.95;;;;;;;22.98;100.00;99327.97;4401045;32;20116;-70
2022/07/03 10:18:12;;;;;;;1.20;1.10;;;;;;;23.35;100.00;99360.56;4401009;32;20070;-72
2022/07/03 10:20:44;;;;;;;2.58;1.23;;;;;;;23.52;100.00;99349.53;4400013;32;20042;-70
2022/07/03 10:23:11;;;;;;;5.22;1.45;;;;;;;23.11;100.00;99323.47;4401081;32;20082;-70
2022/07/03 10:25:41;;;;;;;10.57;1.33;;;;;;;23.68;100.00;99346.25;4400372;32;20035;-70
2022/07/03 10:28:11;;;;;;;1.63;1.53;;;;;;;23.97;100.00;99341.94;4414920;32;20039;-70
2022/07/03 10:30:38;;;;;;;1.27;0.93;;;;;;;24.09;100.00;99342.03;4415844;32;20046;-68
2022/07/03 10:33:04;;;;;;;1.30;1.00;;;;;;;23.81;100.00;99309.47;4415484;32;20072;-69
2022/07/03 10:35:31;;;;;;;0.82;0.80;;;;;;;24.16;97.65;99306.56;4414904;32;20428;-69
2022/07/03 10:38:00;;;;;;;3.70;0.88;;;;;;;23.86;95.38;99342.31;4402410;32;20444;-69
2022/07/03 10:46:33;;;;;;;8.50;1.05;;;;;;;23.46;100.00;99328.84;4415703;32;20038;-68
2022/07/03 10:49:06;;;;;;;3.72;0.90;;;;;;;23.76;97.93;99304.16;4415946;32;20046;-69
2022/07/03 10:51:41;;;;;;;0.85;0.85;;;;;;;24.10;98.66;99324.38;4414282;32;20064;-72
2022/07/03 10:54:34;;;;;;;1.85;1.00;;;;;;;24.38;100.00;99321.13;4415757;32;20068;-70
2022/07/03 10:57:00;;;;;;;3.53;1.08;;;;;;;24.40;100.00;99321.59;4415398;32;20042;-69
2022/07/03 10:59:45;;;;;;;1.58;1.48;;;;;;;24.53;100.00;99320.53;4414345;32;20161;-74
2022/07/03 11:02:21;;;;;;;0.65;0.65;;;;;;;24.97;98.05;99311.91;4414441;32;20050;-70
2022/07/03 11:04:59;;;;;;;7.45;1.00;;;;;;;25.48;98.43;99275.88;4415410;32;20050;-69
2022/07/03 11:07:33;;;;;;;3.70;1.20;;;;;;;26.17;86.46;99279.66;4414660;32;20060;-69
2022/07/03 11:10:23;;;;;;;1.05;1.00;;;;;;;26.48;84.69;99311.31;4414165;32;20064;-70
2022/07/03 11:12:55;;;;;;;2.80;1.10;;;;;;;26.91;80.45;99301.50;4404738;32;20064;-69
2022/07/03 11:15:32;;;;;;;5.45;1.05;;;;;;;27.03;81.21;99308.13;4410574;32;20436;-70
2022/07/03 11:18:05;;;;;;;1.35;1.25;;;;;;;26.91;77.70;99300.69;4397993;32;20072;-72
2022/07/03 11:20:33;;;;;;;1.25;1.10;;;;;;;27.48;72.14;99302.22;4400531;32;20900;-70
2022/07/03 11:23:10;;;;;;;3.33;1.60;;;;;;;27.98;72.53;99297.09;4400257;32;20194;-68
2022/07/03 11:25:45;;;;;;;1.23;1.15;;;;;;;28.46;73.40;99294.19;4400194;32;20043;-70
2022/07/03 11:28:32;;;;;;;1.15;1.12;;;;;;;28.40;65.74;99263.25;4399514;32;20069;-70
2022/07/03 11:31:13;;;;;;;1.75;1.25;;;;;;;27.13;69.54;99297.34;4400060;32;20051;-69
2022/07/03 11:33:55;;;;;;;5.12;2.00;;;;;;;26.84;77.03;99295.78;4386849;32;20053;-69
2022/07/03 11:36:22;;;;;;;2.58;1.30;;;;;;;26.99;79.32;99288.69;4398133;32;20042;-69
2022/07/03 11:38:54;;;;;;;0.93;0.93;;;;;;;26.58;80.00;99287.91;4399880;32;20046;-69
2022/07/03 11:41:21;;;;;;;2.42;0.98;;;;;;;27.33;73.15;99286.44;4399730;32;20046;-70
2022/07/03 11:44:02;;;;;;;1.12;1.02;;;;;;;27.90;66.23;99290.56;4399828;32;20047;-69
2022/07/03 11:46:30;;;;;;;1.05;0.98;;;;;;;27.32;64.23;99271.81;4391509;32;20035;-70
2022/07/03 11:49:16;;;;;;;2.10;1.10;;;;;;;25.92;76.33;99293.44;4408374;32;20941;-71
2022/07/03 11:52:03;;;;;;;1.27;1.20;;;;;;;24.94;84.66;99241.78;4408946;32;20060;-70
2022/07/03 11:54:32;;;;;;;4.00;0.95;;;;;;;25.08;87.96;99260.75;4389721;32;20447;-70